createdAt,value
2018-09-29T00:00:01.088Z,16
2018-09-29T00:01:01.125Z,18
2018-09-29T00:02:01.089Z,19
2018-09-29T00:04:01.086Z,20
2018-09-29T00:05:01.094Z,19
2018-09-29T00:07:01.113Z,17
2018-09-29T00:10:01.181Z,16
2018-09-29T00:11:01.090Z,15
2018-09-29T00:12:01.127Z,16
2018-09-29T00:14:01.091Z,18
2018-09-29T00:15:01.095Z,20
2018-09-29T00:16:01.091Z,19
2018-09-29T00:19:01.090Z,17
2018-09-29T00:20:01.137Z,18
2018-09-29T00:21:01.093Z,19
2018-09-29T00:22:01.091Z,20
2018-09-29T00:23:01.090Z,19
2018-09-29T00:24:01.097Z,18
2018-09-29T00:28:01.097Z,17
2018-09-29T00:29:01.093Z,18
2018-09-29T00:30:01.137Z,17
2018-09-29T00:31:01.119Z,16
2018-09-29T00:32:01.093Z,15
2018-09-29T00:33:01.092Z,16
2018-09-29T00:36:01.119Z,17
2018-09-29T00:38:01.082Z,16
2018-09-29T00:41:01.167Z,15
2018-09-29T00:42:01.082Z,18
2018-09-29T00:44:01.077Z,16
2018-09-29T00:45:01.108Z,16
2018-09-29T00:47:01.077Z,14
2018-09-29T00:48:01.080Z,15
2018-09-29T00:49:01.078Z,17
2018-09-29T00:51:01.169Z,18
2018-09-29T00:53:01.081Z,19
2018-09-29T00:54:01.085Z,18
2018-09-29T00:55:01.105Z,19
2018-09-29T00:56:01.081Z,18
2018-09-29T00:58:01.080Z,17
2018-09-29T01:00:01.188Z,17
2018-09-29T01:01:01.080Z,16
2018-09-29T01:03:01.078Z,17
2018-09-29T01:04:01.082Z,16
2018-09-29T01:05:01.381Z,15
2018-09-29T01:08:01.082Z,14
2018-09-29T01:10:01.176Z,15
2018-09-29T01:11:01.083Z,16
2018-09-29T01:14:01.082Z,18
2018-09-29T01:15:01.080Z,17
2018-09-29T01:16:01.106Z,16
2018-09-29T01:17:01.087Z,17
2018-09-29T01:19:01.077Z,18
2018-09-29T01:21:01.105Z,19
2018-09-29T01:23:01.080Z,18
2018-09-29T01:24:01.079Z,17
2018-09-29T01:25:01.083Z,18
2018-09-29T01:26:01.189Z,17
2018-09-29T01:28:01.084Z,19
2018-09-29T01:29:01.080Z,20
2018-09-29T01:30:01.081Z,19
2018-09-29T01:31:01.078Z,20
2018-09-29T01:32:01.112Z,19
2018-09-29T01:33:01.080Z,18
2018-09-29T01:34:01.081Z,16
2018-09-29T01:35:01.081Z,14
2018-09-29T01:36:01.111Z,13
2018-09-29T01:37:01.080Z,14
2018-09-29T01:38:01.081Z,15
2018-09-29T01:39:01.082Z,16
2018-09-29T01:40:01.080Z,17
2018-09-29T01:43:01.090Z,18
2018-09-29T01:44:01.102Z,17
2018-09-29T01:45:01.084Z,17
2018-09-29T01:46:01.113Z,16
2018-09-29T01:48:01.084Z,15
2018-09-29T01:49:01.086Z,14
2018-09-29T01:50:01.085Z,13
2018-09-29T01:51:01.111Z,14
2018-09-29T01:54:01.083Z,16
2018-09-29T01:55:01.083Z,17
2018-09-29T01:56:01.117Z,18
2018-09-29T01:57:01.094Z,21
2018-09-29T01:58:01.099Z,20
2018-09-29T01:59:01.085Z,19
2018-09-29T02:00:01.096Z,20
2018-09-29T02:02:01.115Z,17
2018-09-29T02:03:01.088Z,16
2018-09-29T02:04:01.087Z,17
2018-09-29T02:05:01.087Z,15
2018-09-29T02:07:01.086Z,18
2018-09-29T02:09:01.087Z,17
2018-09-29T02:11:01.117Z,14
2018-09-29T02:12:01.088Z,12
2018-09-29T02:13:01.089Z,10
2018-09-29T02:14:01.094Z,11
2018-09-29T02:15:01.089Z,13
2018-09-29T02:16:01.115Z,14
2018-09-29T02:17:01.091Z,15
2018-09-29T02:18:01.091Z,17
2018-09-29T02:20:01.090Z,16
2018-09-29T02:23:01.289Z,15
2018-09-29T02:24:01.092Z,14
2018-09-29T02:25:01.096Z,15
2018-09-29T02:26:01.123Z,14
2018-09-29T02:27:01.093Z,13
2018-09-29T02:28:01.101Z,14
2018-09-29T02:29:01.174Z,15
2018-09-29T02:30:01.093Z,15
2018-09-29T02:31:01.136Z,14
2018-09-29T02:32:01.095Z,17
2018-09-29T02:34:01.093Z,16
2018-09-29T02:36:01.119Z,15
2018-09-29T02:38:01.108Z,16
2018-09-29T02:39:01.092Z,17
2018-09-29T02:43:01.140Z,16
2018-09-29T02:44:01.081Z,14
2018-09-29T02:45:01.076Z,14
2018-09-29T02:48:01.104Z,15
2018-09-29T02:49:01.081Z,17
2018-09-29T02:50:01.079Z,18
2018-09-29T02:52:01.109Z,19
2018-09-29T02:53:01.087Z,18
2018-09-29T02:54:01.079Z,16
2018-09-29T02:55:01.086Z,17
2018-09-29T02:56:01.081Z,16
2018-09-29T02:57:01.106Z,17
2018-09-29T02:58:01.079Z,18
2018-09-29T02:59:01.081Z,17
2018-09-29T03:00:01.093Z,15
2018-09-29T03:01:01.081Z,16
2018-09-29T03:02:01.076Z,18
2018-09-29T03:04:01.081Z,19
2018-09-29T03:06:01.121Z,18
2018-09-29T03:07:01.131Z,14
2018-09-29T03:08:01.083Z,15
2018-09-29T03:14:01.148Z,14
2018-09-29T03:15:01.090Z,13
2018-09-29T03:20:01.216Z,14
2018-09-29T03:21:01.056Z,16
2018-09-29T03:22:01.116Z,15
2018-09-29T03:23:01.355Z,16
2018-09-29T03:25:01.090Z,19
2018-09-29T03:26:01.090Z,18
2018-09-29T03:29:01.089Z,17
2018-09-29T03:30:01.091Z,15
2018-09-29T03:31:01.096Z,16
2018-09-29T03:32:01.143Z,15
2018-09-29T03:34:01.097Z,17
2018-09-29T03:35:01.115Z,16
2018-09-29T03:37:01.120Z,18
2018-09-29T03:38:01.094Z,17
2018-09-29T03:39:01.093Z,16
2018-09-29T03:40:01.093Z,15
2018-09-29T03:41:01.094Z,16
2018-09-29T03:42:01.129Z,14
2018-09-29T03:45:01.094Z,14
2018-09-29T03:46:01.099Z,16
2018-09-29T03:48:01.120Z,17
2018-09-29T03:50:01.144Z,18
2018-09-29T03:51:01.081Z,17
2018-09-29T03:52:01.111Z,16
2018-09-29T03:53:01.080Z,18
2018-09-29T03:54:01.080Z,19
2018-09-29T03:58:01.109Z,18
2018-09-29T03:59:01.081Z,16
2018-09-29T04:00:01.080Z,15
2018-09-29T04:02:01.113Z,16
2018-09-29T04:03:01.088Z,17
2018-09-29T04:05:01.081Z,18
2018-09-29T04:06:01.081Z,19
2018-09-29T04:07:01.114Z,17
2018-09-29T04:10:01.209Z,14
2018-09-29T04:12:01.082Z,15
2018-09-29T04:15:01.249Z,17
2018-09-29T04:16:01.090Z,19
2018-09-29T04:17:01.087Z,20
2018-09-29T04:20:01.090Z,18
2018-09-29T04:22:01.084Z,15
2018-09-29T04:23:01.084Z,16
2018-09-29T04:24:01.111Z,15
2018-09-29T04:25:01.085Z,16
2018-09-29T04:26:01.086Z,14
2018-09-29T04:27:01.093Z,15
2018-09-29T04:28:01.084Z,18
2018-09-29T04:30:01.150Z,19
2018-09-29T04:31:01.090Z,18
2018-09-29T04:33:01.087Z,15
2018-09-29T04:37:01.087Z,16
2018-09-29T04:39:01.087Z,18
2018-09-29T04:40:01.570Z,17
2018-09-29T04:41:01.096Z,18
2018-09-29T04:43:01.188Z,17
2018-09-29T04:45:01.088Z,17
2018-09-29T04:46:01.091Z,14
2018-09-29T04:47:01.091Z,15
2018-09-29T04:48:01.088Z,16
2018-09-29T04:49:01.156Z,15
2018-09-29T04:51:01.152Z,16
2018-09-29T04:53:01.091Z,17
2018-09-29T04:54:01.122Z,16
2018-09-29T04:56:01.088Z,17
2018-09-29T05:00:01.232Z,18
2018-09-29T05:02:01.091Z,19
2018-09-29T05:03:01.092Z,20
2018-09-29T05:04:01.124Z,19
2018-09-29T05:06:01.091Z,18
2018-09-29T05:07:01.092Z,17
2018-09-29T05:08:01.091Z,16
2018-09-29T05:12:01.205Z,15
2018-09-29T05:14:01.096Z,14
2018-09-29T05:15:02.813Z,16
2018-09-29T05:18:01.074Z,17
2018-09-29T05:19:01.078Z,16
2018-09-29T05:24:01.140Z,17
2018-09-29T05:25:01.076Z,18
2018-09-29T05:26:01.152Z,17
2018-09-29T05:30:01.077Z,18
2018-09-29T05:31:01.945Z,20
2018-09-29T05:33:01.199Z,17
2018-09-29T05:34:01.076Z,16
2018-09-29T05:35:01.076Z,15
2018-09-29T05:36:01.089Z,14
2018-09-29T05:38:01.083Z,17
2018-09-29T05:39:01.214Z,19
2018-09-29T05:40:01.082Z,18
2018-09-29T05:41:01.083Z,19
2018-09-29T05:42:01.083Z,18
2018-09-29T05:43:01.080Z,16
2018-09-29T05:45:01.079Z,16
2018-09-29T05:46:01.080Z,15
2018-09-29T05:47:01.080Z,17
2018-09-29T05:48:01.143Z,18
2018-09-29T05:49:01.083Z,17
2018-09-29T05:50:01.081Z,18
2018-09-29T05:51:01.083Z,21
2018-09-29T05:52:01.081Z,19
2018-09-29T05:53:01.086Z,20
2018-09-29T05:55:01.087Z,21
2018-09-29T05:56:01.083Z,18
2018-09-29T05:58:01.083Z,17
2018-09-29T05:59:01.083Z,15
2018-09-29T06:00:01.098Z,15
2018-09-29T06:01:01.084Z,18
2018-09-29T06:02:01.085Z,17
2018-09-29T06:03:01.086Z,16
2018-09-29T06:04:01.111Z,19
2018-09-29T06:05:01.088Z,18
2018-09-29T06:06:01.089Z,19
2018-09-29T06:07:01.156Z,20
2018-09-29T06:10:01.152Z,19
2018-09-29T06:11:01.088Z,18
2018-09-29T06:12:01.086Z,17
2018-09-29T06:13:01.166Z,19
2018-09-29T06:14:01.117Z,17
2018-09-29T06:15:01.089Z,17
2018-09-29T06:16:01.087Z,16
2018-09-29T06:17:01.086Z,18
2018-09-29T06:18:01.086Z,16
2018-09-29T06:21:01.213Z,17
2018-09-29T06:22:01.092Z,15
2018-09-29T06:23:01.088Z,16
2018-09-29T06:24:01.093Z,17
2018-09-29T06:25:01.087Z,16
2018-09-29T06:28:01.129Z,14
2018-09-29T06:29:01.117Z,15
2018-09-29T06:30:01.091Z,14
2018-09-29T06:31:01.089Z,13
2018-09-29T06:32:01.190Z,16
2018-09-29T06:34:01.123Z,15
2018-09-29T06:35:01.091Z,16
2018-09-29T06:36:01.095Z,17
2018-09-29T06:37:01.098Z,14
2018-09-29T06:38:01.091Z,15
2018-09-29T06:39:01.117Z,17
2018-09-29T06:40:01.091Z,19
2018-09-29T06:42:01.093Z,17
2018-09-29T06:44:01.133Z,16
2018-09-29T06:45:01.091Z,15
2018-09-29T06:47:01.091Z,16
2018-09-29T06:48:01.104Z,17
2018-09-29T06:49:01.126Z,16
2018-09-29T06:50:01.091Z,15
2018-09-29T06:51:01.090Z,14
2018-09-29T06:53:01.094Z,13
2018-09-29T06:54:01.125Z,14
2018-09-29T06:57:01.095Z,15
2018-09-29T06:58:01.092Z,14
2018-09-29T07:00:01.159Z,14
2018-09-29T07:01:01.089Z,15
2018-09-29T07:02:01.094Z,14
2018-09-29T07:03:01.169Z,15
2018-09-29T07:04:01.125Z,16
2018-09-29T07:05:01.091Z,17
2018-09-29T07:06:01.096Z,16
2018-09-29T07:07:01.096Z,18
2018-09-29T07:08:01.093Z,20
2018-09-29T07:10:01.154Z,21
2018-09-29T07:11:01.090Z,22
2018-09-29T07:12:01.096Z,21
2018-09-29T07:13:01.168Z,20
2018-09-29T07:14:06.093Z,18
2018-09-29T07:15:01.118Z,19
2018-09-29T07:16:01.098Z,18
2018-09-29T07:18:01.095Z,19
2018-09-29T07:20:01.198Z,17
2018-09-29T07:21:01.148Z,18
2018-09-29T07:25:01.103Z,17
2018-09-29T07:26:01.077Z,18
2018-09-29T07:27:01.077Z,14
2018-09-29T07:28:01.079Z,15
2018-09-29T07:29:01.078Z,14
2018-09-29T07:30:01.122Z,16
2018-09-29T07:31:01.077Z,17
2018-09-29T07:32:01.079Z,18
2018-09-29T07:33:01.079Z,16
2018-09-29T07:34:01.077Z,17
2018-09-29T07:35:01.766Z,16
2018-09-29T07:36:01.077Z,17
2018-09-29T07:37:01.079Z,19
2018-09-29T07:38:01.078Z,20
2018-09-29T07:39:01.132Z,19
2018-09-29T07:40:01.118Z,18
2018-09-29T07:41:01.078Z,17
2018-09-29T07:42:01.079Z,16
2018-09-29T07:44:01.082Z,15
2018-09-29T07:45:01.106Z,15
2018-09-29T07:46:01.081Z,16
2018-09-29T07:47:01.082Z,15
2018-09-29T07:50:01.107Z,16
2018-09-29T07:51:01.094Z,15
2018-09-29T07:52:01.953Z,17
2018-09-29T07:54:01.081Z,18
2018-09-29T07:55:01.110Z,17
2018-09-29T07:56:01.160Z,18
2018-09-29T07:57:01.091Z,17
2018-09-29T07:58:01.083Z,16
2018-09-29T08:00:01.178Z,15
2018-09-29T08:01:01.084Z,14
2018-09-29T08:03:01.093Z,16
2018-09-29T08:04:01.084Z,15
2018-09-29T08:05:01.110Z,16
2018-09-29T08:07:01.084Z,15
2018-09-29T08:08:01.084Z,13
2018-09-29T08:10:01.181Z,14
2018-09-29T08:11:01.088Z,15
2018-09-29T08:13:01.089Z,17
2018-09-29T08:14:01.087Z,16
2018-09-29T08:15:01.120Z,18
2018-09-29T08:16:01.090Z,16
2018-09-29T08:17:01.186Z,15
2018-09-29T08:18:01.088Z,14
2018-09-29T08:19:01.091Z,15
2018-09-29T08:20:01.137Z,14
2018-09-29T08:21:01.089Z,17
2018-09-29T08:24:01.089Z,18
2018-09-29T08:25:01.128Z,17
2018-09-29T08:26:01.109Z,16
2018-09-29T08:28:01.089Z,17
2018-09-29T08:29:01.089Z,16
2018-09-29T08:30:01.139Z,16
2018-09-29T08:31:01.093Z,17
2018-09-29T08:33:01.091Z,16
2018-09-29T08:35:01.132Z,14
2018-09-29T08:36:01.096Z,12
2018-09-29T08:37:01.092Z,13
2018-09-29T08:38:01.095Z,14
2018-09-29T08:39:01.093Z,15
2018-09-29T08:40:01.139Z,16
2018-09-29T08:41:01.093Z,17
2018-09-29T08:42:01.093Z,18
2018-09-29T08:43:01.218Z,17
2018-09-29T08:44:01.098Z,16
2018-09-29T08:45:06.113Z,16
2018-09-29T08:46:01.096Z,17
2018-09-29T08:47:01.178Z,16
2018-09-29T08:48:01.097Z,15
2018-09-29T08:49:01.096Z,16
2018-09-29T08:50:01.139Z,15
2018-09-29T08:51:01.096Z,14
2018-09-29T08:53:01.117Z,13
2018-09-29T08:54:01.076Z,12
2018-09-29T08:55:01.078Z,10
2018-09-29T08:56:01.108Z,12
2018-09-29T08:57:01.094Z,11
2018-09-29T08:58:01.078Z,12
2018-09-29T08:59:01.079Z,16
2018-09-29T09:00:01.086Z,18
2018-09-29T09:01:01.118Z,17
2018-09-29T09:02:01.080Z,18
2018-09-29T09:03:01.113Z,19
2018-09-29T09:05:01.219Z,20
2018-09-29T09:08:01.078Z,19
2018-09-29T09:11:01.208Z,18
2018-09-29T09:13:01.081Z,19
2018-09-29T09:15:01.083Z,18
2018-09-29T09:16:01.085Z,19
2018-09-29T09:18:01.080Z,18
2018-09-29T09:22:01.171Z,19
2018-09-29T09:23:01.126Z,20
2018-09-29T09:24:01.118Z,18
2018-09-29T09:26:01.087Z,17
2018-09-29T09:28:01.083Z,16
2018-09-29T09:30:01.255Z,15
2018-09-29T09:33:01.087Z,17
2018-09-29T09:34:01.113Z,16
2018-09-29T09:35:01.088Z,18
2018-09-29T09:36:01.087Z,19
2018-09-29T09:37:01.088Z,21
2018-09-29T09:38:01.091Z,19
2018-09-29T09:40:01.180Z,17
2018-09-29T09:41:01.094Z,15
2018-09-29T09:42:01.088Z,14
2018-09-29T09:43:01.088Z,13
2018-09-29T09:44:01.120Z,15
2018-09-29T09:45:01.096Z,17
2018-09-29T09:46:01.088Z,18
2018-09-29T09:47:01.172Z,17
2018-09-29T09:48:01.090Z,19
2018-09-29T09:49:01.092Z,17
2018-09-29T09:52:01.154Z,16
2018-09-29T09:53:01.088Z,15
2018-09-29T09:56:01.128Z,16
2018-09-29T09:57:01.090Z,15
2018-09-29T09:58:01.090Z,17
2018-09-29T09:59:01.089Z,16
2018-09-29T10:00:01.115Z,17
2018-09-29T10:01:01.088Z,16
2018-09-29T10:03:01.100Z,15
2018-09-29T10:04:01.094Z,16
2018-09-29T10:05:01.117Z,15
2018-09-29T10:07:01.114Z,13
2018-09-29T10:08:01.087Z,14
2018-09-29T10:09:02.332Z,13
2018-09-29T10:10:01.093Z,14
2018-09-29T10:11:01.089Z,16
2018-09-29T10:12:01.121Z,19
2018-09-29T10:13:01.092Z,17
2018-09-29T10:14:01.089Z,20
2018-09-29T10:15:01.091Z,20
2018-09-29T10:16:01.091Z,19
2018-09-29T10:17:01.115Z,18
2018-09-29T10:18:01.092Z,21
2018-09-29T10:19:01.091Z,18
2018-09-29T10:22:01.119Z,17
2018-09-29T10:23:01.093Z,16
2018-09-29T10:24:01.090Z,15
2018-09-29T10:25:01.102Z,16
2018-09-29T10:28:01.090Z,13
2018-09-29T10:29:01.091Z,15
2018-09-29T10:30:01.090Z,15
2018-09-29T10:32:06.162Z,16
2018-09-29T10:33:01.095Z,17
2018-09-29T10:35:01.092Z,16
2018-09-29T10:36:01.092Z,15
2018-09-29T10:37:06.098Z,14
2018-09-29T10:38:01.095Z,16
2018-09-29T10:39:01.096Z,14
2018-09-29T10:40:01.097Z,15
2018-09-29T10:43:01.077Z,17
2018-09-29T10:44:01.113Z,16
2018-09-29T10:45:01.075Z,17
2018-09-29T10:46:01.099Z,18
2018-09-29T10:47:01.110Z,17
2018-09-29T10:58:01.166Z,16
2018-09-29T11:00:01.206Z,15
2018-09-29T11:01:01.106Z,14
2018-09-29T11:03:01.107Z,15
2018-09-29T11:06:01.083Z,16
2018-09-29T11:08:01.103Z,17
2018-09-29T11:10:01.140Z,19
2018-09-29T11:11:01.079Z,20
2018-09-29T11:13:01.105Z,19
2018-09-29T11:14:01.077Z,18
2018-09-29T11:15:01.081Z,17
2018-09-29T11:17:01.084Z,16
2018-09-29T11:18:01.106Z,15
2018-09-29T11:20:01.323Z,14
2018-09-29T11:23:01.106Z,16
2018-09-29T11:24:01.078Z,18
2018-09-29T11:25:01.079Z,19
2018-09-29T11:26:01.079Z,18
2018-09-29T11:27:01.080Z,17
2018-09-29T11:28:01.139Z,15
2018-09-29T11:30:01.147Z,15
2018-09-29T11:34:01.112Z,14
2018-09-29T11:37:01.084Z,15
2018-09-29T11:38:01.110Z,16
2018-09-29T11:40:01.084Z,17
2018-09-29T11:41:01.084Z,19
2018-09-29T11:43:01.113Z,18
2018-09-29T11:44:01.087Z,17
2018-09-29T11:45:01.085Z,19
2018-09-29T11:46:01.088Z,17
2018-09-29T11:49:01.110Z,18
2018-09-29T11:50:01.085Z,15
2018-09-29T11:51:01.085Z,14
2018-09-29T11:52:01.086Z,15
2018-09-29T11:54:01.113Z,16
2018-09-29T11:55:01.090Z,17
2018-09-29T11:58:01.112Z,16
2018-09-29T11:59:01.090Z,15
2018-09-29T12:00:01.091Z,18
2018-09-29T12:03:01.113Z,19
2018-09-29T12:05:01.089Z,18
2018-09-29T12:06:01.237Z,17
2018-09-29T12:09:01.088Z,20
2018-09-29T12:10:02.051Z,19
2018-09-29T12:11:01.126Z,20
2018-09-29T12:12:01.089Z,19
2018-09-29T12:13:01.090Z,18
2018-09-29T12:14:01.135Z,14
2018-09-29T12:15:01.091Z,14
2018-09-29T12:18:01.250Z,15
2018-09-29T12:19:01.116Z,17
2018-09-29T12:20:01.107Z,19
2018-09-29T12:21:01.130Z,17
2018-09-29T12:22:01.090Z,18
2018-09-29T12:23:01.238Z,17
2018-09-29T12:24:01.095Z,18
2018-09-29T12:25:01.091Z,16
2018-09-29T12:26:01.116Z,18
2018-09-29T12:28:01.091Z,19
2018-09-29T12:29:01.094Z,20
2018-09-29T12:30:01.268Z,21
2018-09-29T12:31:01.123Z,19
2018-09-29T12:33:01.063Z,20
2018-09-29T12:35:01.080Z,19
2018-09-29T12:36:01.103Z,21
2018-09-29T12:38:01.077Z,22
2018-09-29T12:39:01.077Z,20
2018-09-29T12:40:01.076Z,19
2018-09-29T12:41:01.109Z,18
2018-09-29T12:42:01.078Z,19
2018-09-29T12:43:01.079Z,18
2018-09-29T12:44:01.082Z,19
2018-09-29T12:45:01.098Z,19
2018-09-29T12:47:01.109Z,17
2018-09-29T12:49:01.080Z,18
2018-09-29T12:52:02.360Z,20
2018-09-29T12:54:01.083Z,18
2018-09-29T12:57:01.109Z,17
2018-09-29T12:58:01.090Z,16
2018-09-29T13:00:01.087Z,16
2018-09-29T13:01:01.115Z,15
2018-09-29T13:03:01.087Z,16
2018-09-29T13:04:01.160Z,15
2018-09-29T13:05:01.140Z,16
2018-09-29T13:07:01.086Z,17
2018-09-29T13:09:01.116Z,18
2018-09-29T13:13:01.094Z,17
2018-09-29T13:14:01.137Z,18
2018-09-29T13:15:01.104Z,18
2018-09-29T13:16:01.088Z,17
2018-09-29T13:17:01.152Z,16
2018-09-29T13:18:01.088Z,18
2018-09-29T13:19:06.092Z,16
2018-09-29T13:20:01.099Z,17
2018-09-29T13:22:01.088Z,18
2018-09-29T13:23:01.186Z,15
2018-09-29T13:24:01.125Z,16
2018-09-29T13:25:01.095Z,15
2018-09-29T13:26:01.088Z,16
2018-09-29T13:27:01.114Z,15
2018-09-29T13:28:01.088Z,18
2018-09-29T13:29:01.090Z,17
2018-09-29T13:30:01.093Z,19
2018-09-29T13:32:01.220Z,20
2018-09-29T13:33:01.090Z,18
2018-09-29T13:35:01.140Z,16
2018-09-29T13:36:01.090Z,17
2018-09-29T13:37:01.155Z,18
2018-09-29T13:39:01.092Z,17
2018-09-29T13:40:01.116Z,18
2018-09-29T13:41:01.094Z,17
2018-09-29T13:42:01.089Z,15
2018-09-29T13:44:01.093Z,17
2018-09-29T13:45:01.116Z,18
2018-09-29T13:48:01.093Z,19
2018-09-29T13:49:01.093Z,18
2018-09-29T13:51:01.167Z,17
2018-09-29T13:52:01.075Z,18
2018-09-29T13:53:01.078Z,17
2018-09-29T13:54:01.083Z,16
2018-09-29T13:55:01.112Z,15
2018-09-29T13:56:01.076Z,16
2018-09-29T13:57:01.077Z,15
2018-09-29T13:59:01.082Z,16
2018-09-29T14:00:01.103Z,16
2018-09-29T14:01:02.143Z,17
2018-09-29T14:02:01.074Z,16
2018-09-29T14:05:01.102Z,19
2018-09-29T14:06:01.077Z,20
2018-09-29T14:08:01.075Z,18
2018-09-29T14:10:01.205Z,16
2018-09-29T14:11:01.076Z,15
2018-09-29T14:13:01.077Z,17
2018-09-29T14:15:01.083Z,17
2018-09-29T14:16:01.076Z,18
2018-09-29T14:17:01.075Z,19
2018-09-29T14:18:01.106Z,17
2018-09-29T14:19:01.112Z,19
2018-09-29T14:20:01.193Z,18
2018-09-29T14:21:01.605Z,16
2018-09-29T14:22:01.105Z,18
2018-09-29T14:23:01.078Z,17
2018-09-29T14:24:01.076Z,15
2018-09-29T14:25:01.078Z,16
2018-09-29T14:26:01.078Z,17
2018-09-29T14:29:01.076Z,18
2018-09-29T14:30:01.141Z,19
2018-09-29T14:32:01.106Z,17
2018-09-29T14:34:01.078Z,18
2018-09-29T14:35:01.085Z,17
2018-09-29T14:38:01.085Z,18
2018-09-29T14:42:01.214Z,19
2018-09-29T14:43:01.085Z,18
2018-09-29T14:45:01.132Z,19
2018-09-29T14:46:01.144Z,17
2018-09-29T14:49:01.080Z,16
2018-09-29T14:50:01.087Z,15
2018-09-29T14:52:01.118Z,14
2018-09-29T14:53:01.086Z,15
2018-09-29T14:54:01.113Z,16
2018-09-29T14:55:03.403Z,15
2018-09-29T14:56:01.080Z,16
2018-09-29T14:57:01.084Z,18
2018-09-29T14:58:01.263Z,19
2018-09-29T15:00:01.210Z,19
2018-09-29T15:01:01.081Z,18
2018-09-29T15:02:01.087Z,17
2018-09-29T15:03:01.081Z,15
2018-09-29T15:04:01.096Z,18
2018-09-29T15:05:01.179Z,20
2018-09-29T15:09:01.082Z,17
2018-09-29T15:10:01.093Z,16
2018-09-29T15:11:01.122Z,18
2018-09-29T15:14:01.086Z,17
2018-09-29T15:15:01.099Z,16
2018-09-29T15:17:01.086Z,15
2018-09-29T15:19:01.092Z,17
2018-09-29T15:22:01.149Z,16
2018-09-29T15:27:01.087Z,15
2018-09-29T15:28:01.088Z,16
2018-09-29T15:30:01.223Z,15
2018-09-29T15:31:01.831Z,14
2018-09-29T15:32:01.087Z,17
2018-09-29T15:34:01.089Z,16
2018-09-29T15:35:01.092Z,18
2018-09-29T15:37:01.113Z,15
2018-09-29T15:39:01.089Z,13
2018-09-29T15:41:01.180Z,14
2018-09-29T15:42:01.097Z,15
2018-09-29T15:44:01.092Z,17
2018-09-29T15:45:01.129Z,18
2018-09-29T15:46:01.117Z,17
2018-09-29T15:50:02.120Z,14
2018-09-29T15:51:01.126Z,13
2018-09-29T15:52:01.098Z,12
2018-09-29T15:55:01.106Z,13
2018-09-29T15:56:01.134Z,15
2018-09-29T15:57:01.097Z,17
2018-09-29T15:59:01.077Z,18
2018-09-29T16:00:01.077Z,17
2018-09-29T16:02:01.077Z,15
2018-09-29T16:05:01.082Z,16
2018-09-29T16:07:01.079Z,18
2018-09-29T16:09:01.141Z,19
2018-09-29T16:10:01.083Z,18
2018-09-29T16:11:01.084Z,20
2018-09-29T16:12:01.077Z,18
2018-09-29T16:13:01.079Z,17
2018-09-29T16:14:01.077Z,16
2018-09-29T16:15:01.078Z,16
2018-09-29T16:16:01.078Z,15
2018-09-29T16:17:01.107Z,16
2018-09-29T16:19:01.078Z,17
2018-09-29T16:21:01.153Z,18
2018-09-29T16:22:01.111Z,17
2018-09-29T16:24:01.076Z,16
2018-09-29T16:25:01.080Z,17
2018-09-29T16:26:01.080Z,16
2018-09-29T16:28:01.080Z,15
2018-09-29T16:29:01.079Z,16
2018-09-29T16:30:01.082Z,16
2018-09-29T16:31:01.081Z,15
2018-09-29T16:32:06.210Z,14
2018-09-29T16:33:01.083Z,16
2018-09-29T16:35:01.088Z,15
2018-09-29T16:37:06.092Z,16
2018-09-29T16:38:01.084Z,15
2018-09-29T16:39:01.087Z,14
2018-09-29T16:40:01.087Z,15
2018-09-29T16:41:01.085Z,16
2018-09-29T16:42:06.091Z,15
2018-09-29T16:43:01.083Z,17
2018-09-29T16:44:01.088Z,16
2018-09-29T16:45:01.087Z,14
2018-09-29T16:47:01.113Z,15
2018-09-29T16:48:01.081Z,13
2018-09-29T16:49:01.090Z,14
2018-09-29T16:50:01.158Z,15
2018-09-29T16:51:01.087Z,17
2018-09-29T16:52:01.110Z,16
2018-09-29T16:53:01.108Z,15
2018-09-29T16:56:01.084Z,14
2018-09-29T16:57:01.088Z,15
2018-09-29T16:58:01.102Z,14
2018-09-29T16:59:01.086Z,15
2018-09-29T17:00:01.090Z,14
2018-09-29T17:03:01.088Z,16
2018-09-29T17:04:01.200Z,15
2018-09-29T17:05:01.087Z,16
2018-09-29T17:06:01.096Z,18
2018-09-29T17:08:01.099Z,17
2018-09-29T17:09:01.184Z,15
2018-09-29T17:10:01.087Z,16
2018-09-29T17:11:01.088Z,17
2018-09-29T17:12:01.086Z,16
2018-09-29T17:14:01.090Z,18
2018-09-29T17:15:01.087Z,18
2018-09-29T17:18:01.114Z,19
2018-09-29T17:19:01.087Z,18
2018-09-29T17:21:01.219Z,15
2018-09-29T17:22:01.090Z,16
2018-09-29T17:23:01.115Z,14
2018-09-29T17:24:01.094Z,16
2018-09-29T17:25:01.095Z,14
2018-09-29T17:26:01.088Z,16
2018-09-29T17:27:01.094Z,17
2018-09-29T17:28:06.102Z,18
2018-09-29T17:29:01.092Z,17
2018-09-29T17:30:01.094Z,20
2018-09-29T17:31:01.093Z,17
2018-09-29T17:33:06.092Z,15
2018-09-29T17:34:01.093Z,17
2018-09-29T17:35:01.098Z,14
2018-09-29T17:36:01.098Z,16
2018-09-29T17:37:01.097Z,18
2018-09-29T17:38:06.097Z,19
2018-09-29T17:39:01.090Z,17
2018-09-29T17:40:01.094Z,18
2018-09-29T17:42:01.090Z,17
2018-09-29T17:43:06.100Z,18
2018-09-29T17:44:01.091Z,19
2018-09-29T17:45:01.093Z,19
2018-09-29T17:46:01.101Z,18
2018-09-29T17:48:01.118Z,19
2018-09-29T17:49:01.092Z,20
2018-09-29T17:50:01.098Z,21
2018-09-29T17:51:01.100Z,19
2018-09-29T17:52:01.092Z,18
2018-09-29T17:54:01.102Z,16
2018-09-29T17:55:01.107Z,18
2018-09-29T17:56:01.092Z,19
2018-09-29T17:57:01.096Z,20
2018-09-29T17:58:06.098Z,19
2018-09-29T17:59:01.235Z,18
2018-09-29T18:00:01.111Z,18
2018-09-29T18:01:01.137Z,19
2018-09-29T18:02:01.099Z,17
2018-09-29T18:04:01.149Z,16
2018-09-29T18:05:01.097Z,18
2018-09-29T18:06:01.046Z,17
2018-09-29T18:07:01.395Z,16
2018-09-29T18:08:01.102Z,17
2018-09-29T18:09:01.079Z,19
2018-09-29T18:10:01.081Z,16
2018-09-29T18:11:01.077Z,15
2018-09-29T18:13:01.113Z,16
2018-09-29T18:15:01.078Z,16
2018-09-29T18:16:01.076Z,18
2018-09-29T18:19:01.317Z,16
2018-09-29T18:20:01.078Z,17
2018-09-29T18:21:01.077Z,16
2018-09-29T18:24:01.105Z,19
2018-09-29T18:25:01.078Z,17
2018-09-29T18:26:01.082Z,18
2018-09-29T18:29:01.106Z,17
2018-09-29T18:30:01.087Z,19
2018-09-29T18:31:01.089Z,17
2018-09-29T18:33:01.110Z,18
2018-09-29T18:34:01.079Z,16
2018-09-29T18:37:01.082Z,15
2018-09-29T18:38:01.106Z,14
2018-09-29T18:39:01.078Z,15
2018-09-29T18:41:01.148Z,16
2018-09-29T18:43:01.106Z,17
2018-09-29T18:44:01.081Z,16
2018-09-29T18:45:01.082Z,16
2018-09-29T18:47:01.082Z,18
2018-09-29T18:48:01.108Z,15
2018-09-29T18:50:01.107Z,16
2018-09-29T18:52:01.082Z,15
2018-09-29T18:53:01.084Z,16
2018-09-29T18:55:01.110Z,17
2018-09-29T18:58:01.147Z,16
2018-09-29T18:59:01.109Z,18
2018-09-29T19:00:01.086Z,17
2018-09-29T19:01:01.091Z,16
2018-09-29T19:02:01.083Z,15
2018-09-29T19:03:02.040Z,16
2018-09-29T19:04:01.521Z,14
2018-09-29T19:05:01.113Z,15
2018-09-29T19:07:01.084Z,14
2018-09-29T19:09:01.089Z,13
2018-09-29T19:12:01.168Z,14
2018-09-29T19:13:01.171Z,16
2018-09-29T19:15:01.113Z,16
2018-09-29T19:17:01.087Z,17
2018-09-29T19:19:01.087Z,18
2018-09-29T19:20:01.764Z,17
2018-09-29T19:21:01.087Z,16
2018-09-29T19:22:01.091Z,15
2018-09-29T19:23:01.088Z,14
2018-09-29T19:24:01.091Z,15
2018-09-29T19:25:01.095Z,14
2018-09-29T19:26:01.111Z,17
2018-09-29T19:27:01.085Z,18
2018-09-29T19:28:01.195Z,17
2018-09-29T19:30:01.151Z,17
2018-09-29T19:33:01.089Z,18
2018-09-29T19:35:01.090Z,19
2018-09-29T19:36:01.113Z,20
2018-09-29T19:37:01.089Z,17
2018-09-29T19:38:01.091Z,18
2018-09-29T19:41:01.192Z,15
2018-09-29T19:42:01.089Z,16
2018-09-29T19:43:01.086Z,14
2018-09-29T19:44:01.085Z,13
2018-09-29T19:45:01.112Z,13
2018-09-29T19:46:01.091Z,15
2018-09-29T19:47:01.090Z,16
2018-09-29T19:50:01.116Z,14
2018-09-29T19:51:01.090Z,13
2018-09-29T19:52:01.095Z,12
2018-09-29T19:53:01.087Z,13
2018-09-29T19:54:01.125Z,15
2018-09-29T19:55:01.086Z,16
2018-09-29T19:56:01.088Z,18
2018-09-29T19:57:01.087Z,17
2018-09-29T19:58:01.087Z,16
2018-09-29T19:59:01.089Z,14
2018-09-29T20:00:01.117Z,15
2018-09-29T20:01:01.089Z,14
2018-09-29T20:02:01.090Z,15
2018-09-29T20:03:01.086Z,16
2018-09-29T20:07:01.176Z,17
2018-09-29T20:08:01.344Z,18
2018-09-29T20:09:01.090Z,17
2018-09-29T20:11:01.182Z,15
2018-09-29T20:14:01.088Z,16
2018-09-29T20:15:01.143Z,17
2018-09-29T20:16:01.089Z,21
2018-09-29T20:18:01.095Z,19
2018-09-29T20:20:01.132Z,20
2018-09-29T20:21:01.090Z,17